Varde, Denmark
Current Conditions -  °F | °C
As of 1:20 AM on Monday 26 Jan 2015 (Local Time) from EKEB Reporting Station
Haze Haze  
Wind Chill: 31°   Ceiling: 300
Heat Index: 37°   Visibility: 2.4mi
Dew Point: 37°   Wind: 8mph
Humidity: 100%   Direction: 180°S
Pressure: 30.09"   Gusts: NA
Location:  55.62°N, 8.48°E
Report Text: EKEB 260020Z AUTO 18007KT 3900NDV BR BKN003/// BKN051///BKN096/// 03/03 Q1019
Loading
Personal Weather Stations






























Interactive Weather Map New forecast layout! Learn more

10-Day Weather Forecast

Advertisements
Track Severe Weather on mobile